Time;durP1;ratioP1;P1;durP2;ratioP2;P2;SDS_P1;SDS_P2;PMS_P1;PMS_P2;Temp;Humidity;BMP_temperature;BMP_pressure;BME280_temperature;BME280_humidity;BME280_pressure;Samples;Min_cycle;Max_cycle;Signal;HPM_P1;HPM_P2
2024/01/19 00:01:46;;;;;;;31.17;18.20;;;;;;;2.48;90.68;97680.44;4218814;28;20614;-88
2024/01/19 00:03:48;;;;;;;29.08;16.95;;;;;;;2.47;90.40;97691.63;4233248;27;20216;-89
2024/01/19 00:05:51;;;;;;;32.58;17.60;;;;;;;2.47;90.53;97701.09;4235671;27;20249;-87
2024/01/19 00:07:55;;;;;;;31.65;18.42;;;;;;;2.49;90.64;97700.09;4252718;27;20207;-88
2024/01/19 00:09:59;;;;;;;30.75;17.88;;;;;;;2.49;90.45;97694.13;4216154;27;20266;-87
2024/01/19 00:12:03;;;;;;;34.28;18.00;;;;;;;2.46;90.30;97695.06;4245516;27;20195;-89
2024/01/19 00:14:06;;;;;;;31.35;17.90;;;;;;;2.45;90.31;97700.28;4251745;27;20721;-87
2024/01/19 00:16:08;;;;;;;28.50;17.80;;;;;;;2.44;91.17;97702.03;4235136;27;20215;-89
2024/01/19 00:18:12;;;;;;;31.40;18.73;;;;;;;2.41;90.93;97701.34;4224182;27;20602;-88
2024/01/19 00:20:14;;;;;;;32.42;18.63;;;;;;;2.42;90.58;97703.84;4253803;27;20676;-89
2024/01/19 00:22:17;;;;;;;31.13;17.52;;;;;;;2.45;90.59;97708.00;4240607;27;20235;-88
2024/01/19 00:24:20;;;;;;;34.05;18.00;;;;;;;2.44;90.72;97711.50;4243675;27;20215;-89
2024/01/19 00:26:24;;;;;;;28.75;18.75;;;;;;;2.41;90.88;97712.47;4234056;27;20203;-85
2024/01/19 00:28:27;;;;;;;29.13;17.90;;;;;;;2.46;90.89;97707.13;4220252;27;20212;-88
2024/01/19 00:30:30;;;;;;;29.85;18.30;;;;;;;2.46;91.14;97712.25;4255607;27;20199;-87
2024/01/19 00:32:33;;;;;;;30.63;18.20;;;;;;;2.50;90.74;97717.22;4234038;27;20234;-88
2024/01/19 00:34:37;;;;;;;26.45;16.83;;;;;;;2.49;90.45;97720.69;4238394;27;20294;-85
2024/01/19 00:36:40;;;;;;;30.20;17.83;;;;;;;2.49;90.32;97725.81;4233329;27;20208;-88
2024/01/19 00:38:44;;;;;;;31.85;19.05;;;;;;;2.49;91.23;97738.69;4252844;27;20199;-89
2024/01/19 00:40:47;;;;;;;27.85;17.38;;;;;;;2.53;90.63;97736.84;4238823;27;20203;-87
2024/01/19 00:42:51;;;;;;;31.38;19.23;;;;;;;2.53;90.81;97729.13;4221817;27;20203;-89
2024/01/19 00:44:55;;;;;;;30.30;18.45;;;;;;;2.50;90.61;97737.78;4254838;27;20231;-87
2024/01/19 00:46:58;;;;;;;33.72;18.13;;;;;;;2.46;90.40;97736.25;4254293;27;20204;-89
2024/01/19 00:49:01;;;;;;;29.13;17.48;;;;;;;2.43;90.54;97744.09;4234475;27;20230;-88
2024/01/19 00:51:04;;;;;;;31.90;18.08;;;;;;;2.42;90.96;97739.88;4257099;27;20342;-87
2024/01/19 00:53:08;;;;;;;35.03;19.23;;;;;;;2.41;90.89;97753.63;4217628;27;20197;-88
2024/01/19 00:55:11;;;;;;;29.75;18.15;;;;;;;2.43;90.99;97759.53;4235667;27;20295;-85
2024/01/19 00:57:14;;;;;;;30.23;17.30;;;;;;;2.46;91.12;97764.53;4221482;27;20285;-86
2024/01/19 00:59:19;;;;;;;28.52;17.38;;;;;;;2.48;90.94;97762.75;4252763;27;20226;-89
2024/01/19 01:01:21;;;;;;;33.58;18.40;;;;;;;2.51;90.57;97764.34;4236053;27;20235;-88
2024/01/19 01:03:25;;;;;;;31.67;18.95;;;;;;;2.54;90.57;97774.50;4239676;27;20299;-85
2024/01/19 01:05:28;;;;;;;31.33;20.08;;;;;;;2.53;91.13;97767.72;4248479;27;20228;-89
2024/01/19 01:07:32;;;;;;;33.05;17.80;;;;;;;2.53;90.83;97775.44;4248501;27;20203;-88
2024/01/19 01:09:36;;;;;;;32.92;19.00;;;;;;;2.54;91.00;97774.50;4248953;27;20215;-89
2024/01/19 01:11:39;;;;;;;36.92;20.90;;;;;;;2.56;91.08;97781.28;4223360;27;20231;-89
2024/01/19 01:13:42;;;;;;;35.22;20.70;;;;;;;2.58;90.55;97782.03;4236142;27;20203;-81
2024/01/19 01:15:46;;;;;;;33.28;20.42;;;;;;;2.58;91.19;97782.03;4243319;27;20211;-80
2024/01/19 01:17:49;;;;;;;37.42;20.25;;;;;;;2.59;91.01;97788.03;4256312;27;20624;-81
2024/01/19 01:19:52;;;;;;;39.40;21.33;;;;;;;2.58;91.18;97794.91;4220435;27;20200;-81
2024/01/19 01:21:55;;;;;;;35.20;19.85;;;;;;;2.62;90.60;97799.03;4225577;27;20224;-81
2024/01/19 01:23:59;;;;;;;35.20;20.02;;;;;;;2.59;91.18;97799.16;4236644;27;20206;-81
2024/01/19 01:26:02;;;;;;;39.42;21.40;;;;;;;2.60;90.63;97811.13;4222350;27;20205;-83
2024/01/19 01:28:06;;;;;;;33.78;19.90;;;;;;;2.61;91.18;97812.78;4235312;27;20200;-82
2024/01/19 01:30:09;;;;;;;35.55;21.65;;;;;;;2.60;90.54;97816.28;4237534;27;20231;-81
2024/01/19 01:32:13;;;;;;;33.67;20.48;;;;;;;2.60;91.26;97821.44;4239754;27;20236;-81
2024/01/19 01:34:16;;;;;;;37.63;20.90;;;;;;;2.59;90.84;97830.03;4240153;27;20200;-81
2024/01/19 01:36:20;;;;;;;35.60;21.90;;;;;;;2.59;90.89;97831.78;4237093;27;20235;-81
2024/01/19 01:38:23;;;;;;;38.47;21.27;;;;;;;2.54;90.98;97834.56;4223799;27;20205;-81
2024/01/19 01:40:25;;;;;;;42.33;21.40;;;;;;;2.49;90.98;97839.03;4218254;27;20221;-81
2024/01/19 01:42:29;;;;;;;39.53;21.88;;;;;;;2.47;91.38;97840.00;4233913;27;20203;-81
2024/01/19 01:44:34;;;;;;;40.38;22.30;;;;;;;2.49;91.44;97849.31;4249715;27;20227;-81
2024/01/19 01:46:37;;;;;;;39.75;22.33;;;;;;;2.52;90.85;97844.03;4221753;27;20199;-81
2024/01/19 01:48:42;;;;;;;39.92;23.70;;;;;;;2.53;91.67;97850.06;4238672;27;20758;-81
2024/01/19 01:50:45;;;;;;;41.83;22.65;;;;;;;2.54;91.47;97850.00;4217903;28;20747;-81
2024/01/19 01:52:48;;;;;;;37.55;21.73;;;;;;;2.55;91.31;97850.81;4234344;27;20199;-81
2024/01/19 01:54:53;;;;;;;36.83;21.95;;;;;;;2.57;90.90;97851.56;4222574;27;20204;-81
2024/01/19 01:56:57;;;;;;;39.53;22.60;;;;;;;2.53;90.56;97844.91;4224400;27;20208;-81
2024/01/19 01:58:59;;;;;;;41.63;22.80;;;;;;;2.54;90.96;97855.13;4253063;27;20198;-81
2024/01/19 02:01:02;;;;;;;38.47;22.48;;;;;;;2.54;90.71;97855.13;4222291;27;20269;-80
2024/01/19 02:03:06;;;;;;;38.38;21.58;;;;;;;2.51;90.87;97860.41;4218538;27;20210;-83
2024/01/19 02:05:11;;;;;;;36.85;22.20;;;;;;;2.49;91.14;97859.59;4233899;27;20251;-81
2024/01/19 02:07:15;;;;;;;40.75;21.75;;;;;;;2.52;91.15;97859.47;4236448;27;20676;-81
2024/01/19 02:09:18;;;;;;;35.15;21.20;;;;;;;2.51;90.43;97864.69;4218378;28;20757;-81
2024/01/19 02:11:21;;;;;;;41.97;22.80;;;;;;;2.48;90.06;97862.25;4220476;27;20678;-80
2024/01/19 02:13:25;;;;;;;35.25;20.50;;;;;;;2.49;90.10;97874.22;4238203;27;20280;-81
2024/01/19 02:15:29;;;;;;;34.55;20.33;;;;;;;2.48;89.87;97865.69;4217721;27;20321;-81
2024/01/19 02:17:32;;;;;;;39.60;21.00;;;;;;;2.47;90.14;97866.56;4251736;27;20675;-80
2024/01/19 02:19:35;;;;;;;35.70;21.20;;;;;;;2.46;89.90;97858.91;4233678;27;20704;-82
2024/01/19 02:21:40;;;;;;;41.72;22.27;;;;;;;2.44;89.90;97864.13;4248276;27;20778;-81
2024/01/19 02:23:50;;;;;;;35.15;20.80;;;;;;;2.40;89.74;97867.69;4251099;27;20293;-89
2024/01/19 02:25:55;;;;;;;41.20;21.65;;;;;;;2.38;89.92;97864.34;4251787;27;20595;-89
2024/01/19 02:27:58;;;;;;;42.58;20.98;;;;;;;2.38;90.14;97877.22;4234610;27;20258;-88
2024/01/19 02:30:02;;;;;;;38.83;22.45;;;;;;;2.38;89.71;97871.25;4251986;27;20583;-91
2024/01/19 02:32:05;;;;;;;41.35;23.90;;;;;;;2.37;89.62;97874.72;4254841;27;20296;-88
2024/01/19 02:34:09;;;;;;;45.47;23.27;;;;;;;2.36;89.68;97873.03;4236453;27;20833;-89
2024/01/19 02:36:12;;;;;;;38.00;23.33;;;;;;;2.35;90.00;97858.50;4229752;27;20204;-87
2024/01/19 02:38:15;;;;;;;39.25;21.27;;;;;;;2.33;90.02;97863.72;4228586;27;20701;-87
2024/01/19 02:40:18;;;;;;;37.53;21.90;;;;;;;2.33;90.03;97868.03;4235750;27;20196;-88
2024/01/19 02:42:23;;;;;;;40.25;22.02;;;;;;;2.34;90.11;97877.41;4232476;27;20549;-87
2024/01/19 02:44:26;;;;;;;36.00;20.98;;;;;;;2.36;89.80;97878.16;4229540;27;20230;-88
2024/01/19 02:46:29;;;;;;;40.15;22.30;;;;;;;2.33;89.97;97879.16;4248768;27;20678;-85
2024/01/19 02:48:32;;;;;;;41.88;22.52;;;;;;;2.34;90.34;97882.53;4250485;27;20209;-88
2024/01/19 02:50:35;;;;;;;43.25;22.60;;;;;;;2.34;90.45;97883.38;4250246;27;20203;-88
2024/01/19 02:52:39;;;;;;;39.53;21.25;;;;;;;2.37;90.47;97888.41;4217778;28;20220;-89
2024/01/19 02:54:47;;;;;;;46.47;22.20;;;;;;;2.37;90.37;97895.28;4229047;27;21086;-86
2024/01/19 02:56:51;;;;;;;35.15;20.58;;;;;;;2.38;90.80;97899.53;4253367;27;20568;-85
2024/01/19 02:58:55;;;;;;;35.30;21.80;;;;;;;2.33;90.91;97897.16;4251873;27;20211;-88
2024/01/19 03:00:59;;;;;;;39.45;22.10;;;;;;;2.34;90.64;97898.81;4218652;27;20239;-89
2024/01/19 03:03:02;;;;;;;41.20;24.10;;;;;;;2.33;90.22;97910.00;4236340;27;20195;-86
2024/01/19 03:05:06;;;;;;;39.65;23.02;;;;;;;2.34;91.08;97913.41;4219762;28;20220;-87
2024/01/19 03:07:09;;;;;;;38.22;23.13;;;;;;;2.33;90.96;97913.47;4218281;28;20253;-89
2024/01/19 03:09:12;;;;;;;41.25;23.65;;;;;;;2.33;90.97;97922.03;4217651;28;20295;-89
2024/01/19 03:11:15;;;;;;;42.08;23.52;;;;;;;2.33;90.59;97922.88;4254580;27;20194;-87
2024/01/19 03:13:19;;;;;;;41.03;23.77;;;;;;;2.34;90.74;97924.53;4251167;27;20661;-89
2024/01/19 03:15:23;;;;;;;40.05;22.92;;;;;;;2.37;90.49;97926.97;4221176;28;20203;-88
2024/01/19 03:17:27;;;;;;;36.55;22.77;;;;;;;2.35;90.80;97928.78;4217375;28;20218;-85
2024/01/19 03:19:31;;;;;;;38.75;22.23;;;;;;;2.34;90.61;97926.28;4233394;27;20204;-87
2024/01/19 03:21:34;;;;;;;40.90;24.40;;;;;;;2.35;90.84;97925.38;4236676;27;20266;-88
2024/01/19 03:23:37;;;;;;;41.42;23.25;;;;;;;2.35;90.81;97922.81;4224888;28;20203;-88
2024/01/19 03:25:40;;;;;;;42.70;23.08;;;;;;;2.39;90.35;97932.94;4237838;27;20227;-88
2024/01/19 03:27:43;;;;;;;38.42;22.70;;;;;;;2.38;90.35;97932.97;4229779;27;20216;-89
2024/01/19 03:29:47;;;;;;;40.40;22.80;;;;;;;2.39;90.24;97939.78;4234046;27;20200;-89
2024/01/19 03:31:52;;;;;;;38.65;22.48;;;;;;;2.37;90.23;97926.16;4249058;27;20212;-84
2024/01/19 03:33:55;;;;;;;40.10;22.60;;;;;;;2.35;90.49;97928.78;4214555;28;20624;-81
2024/01/19 03:35:59;;;;;;;34.13;21.63;;;;;;;2.33;90.13;97935.72;4226391;28;20543;-81
2024/01/19 03:38:03;;;;;;;34.75;21.02;;;;;;;2.27;89.91;97940.28;4250559;27;20206;-81
2024/01/19 03:40:09;;;;;;;40.92;22.90;;;;;;;2.26;90.70;97935.19;4253227;27;20622;-81
2024/01/19 03:42:12;;;;;;;40.25;23.23;;;;;;;2.29;90.75;97935.09;4223924;28;20196;-82
2024/01/19 03:44:16;;;;;;;38.63;23.10;;;;;;;2.32;90.44;97951.22;4227668;27;20284;-81
2024/01/19 03:46:19;;;;;;;45.03;25.08;;;;;;;2.31;89.87;97943.56;4239958;27;20224;-81
2024/01/19 03:48:23;;;;;;;49.13;24.85;;;;;;;2.31;90.18;97946.13;4223309;27;20670;-81
2024/01/19 03:50:27;;;;;;;44.47;24.20;;;;;;;2.31;90.19;97946.13;4240677;27;20270;-82
2024/01/19 03:52:30;;;;;;;41.70;24.30;;;;;;;2.29;90.00;97942.81;4248502;27;20269;-81
2024/01/19 03:54:34;;;;;;;39.25;23.10;;;;;;;2.30;90.58;97939.31;4224066;28;20200;-81
2024/01/19 03:56:38;;;;;;;38.95;22.88;;;;;;;2.32;90.40;97940.13;4243560;27;20206;-81
2024/01/19 03:58:41;;;;;;;40.83;22.45;;;;;;;2.32;90.20;97937.53;4228002;27;20204;-81
2024/01/19 04:00:44;;;;;;;37.78;22.00;;;;;;;2.32;90.22;97937.53;4240660;27;20722;-81
2024/01/19 04:02:48;;;;;;;36.17;21.45;;;;;;;2.31;90.25;97938.44;4240823;27;20751;-82
2024/01/19 04:04:52;;;;;;;40.13;23.70;;;;;;;2.31;90.25;97935.84;4227183;27;20710;-82
2024/01/19 04:06:56;;;;;;;41.33;23.13;;;;;;;2.28;90.17;97943.69;4221494;28;20281;-81
2024/01/19 04:08:59;;;;;;;36.78;22.73;;;;;;;2.23;90.26;97941.28;4237613;27;20204;-81
2024/01/19 04:11:02;;;;;;;42.33;23.08;;;;;;;2.19;90.61;97934.56;4249525;27;20770;-81
2024/01/19 04:13:05;;;;;;;39.40;23.70;;;;;;;2.18;90.14;97930.34;4224243;28;20200;-81
2024/01/19 04:15:12;;;;;;;47.88;24.67;;;;;;;2.15;90.58;97937.31;4222974;28;20197;-81
2024/01/19 04:17:14;;;;;;;37.67;22.30;;;;;;;2.15;90.33;97942.47;4225584;27;20231;-81
2024/01/19 04:19:18;;;;;;;38.72;22.17;;;;;;;2.13;90.15;97946.84;4225128;27;20208;-81
2024/01/19 04:21:22;;;;;;;38.97;22.33;;;;;;;2.16;90.30;97946.72;4241965;27;20219;-83
2024/01/19 04:23:25;;;;;;;39.50;21.63;;;;;;;2.17;90.53;97949.25;4224818;28;20323;-81
2024/01/19 04:25:29;;;;;;;39.15;23.27;;;;;;;2.16;90.45;97944.16;4234790;27;20634;-80
2024/01/19 04:27:32;;;;;;;40.33;23.00;;;;;;;2.15;90.24;97943.31;4239348;27;21063;-81
2024/01/19 04:29:34;;;;;;;36.63;21.13;;;;;;;2.13;89.95;97946.84;4254760;27;20699;-81
2024/01/19 04:31:37;;;;;;;36.50;21.27;;;;;;;2.15;89.64;97950.19;4221920;27;20218;-83
2024/01/19 04:33:40;;;;;;;38.25;22.08;;;;;;;2.20;89.62;97958.59;4241947;27;20196;-81
2024/01/19 04:35:44;;;;;;;43.28;22.85;;;;;;;2.19;89.74;97956.91;4226655;28;20232;-81
2024/01/19 04:37:48;;;;;;;43.05;23.85;;;;;;;2.22;89.68;97972.22;4225752;27;20208;-81
2024/01/19 04:39:51;;;;;;;39.28;24.40;;;;;;;2.25;89.73;97962.63;4228144;27;20192;-81
2024/01/19 04:41:55;;;;;;;37.65;22.52;;;;;;;2.23;89.43;97963.59;4235854;27;20198;-81
2024/01/19 04:43:58;;;;;;;41.80;23.73;;;;;;;2.21;89.35;97966.25;4236872;27;20363;-81
2024/01/19 04:46:01;;;;;;;37.40;21.02;;;;;;;2.22;89.36;97961.91;4239563;27;20564;-81
2024/01/19 04:48:05;;;;;;;36.80;22.02;;;;;;;2.24;89.79;97960.97;4220917;27;20205;-81
2024/01/19 04:50:09;;;;;;;39.50;21.88;;;;;;;2.25;89.17;97961.81;4239576;27;20739;-81
2024/01/19 04:52:12;;;;;;;41.42;22.00;;;;;;;2.23;89.24;97968.75;4224059;28;20654;-81
2024/01/19 04:54:16;;;;;;;40.50;20.95;;;;;;;2.19;89.21;97978.28;4241101;27;20200;-81
2024/01/19 04:56:20;;;;;;;37.95;22.40;;;;;;;2.18;89.12;97978.34;4225101;28;20241;-81
2024/01/19 04:58:23;;;;;;;41.58;23.17;;;;;;;2.13;89.52;97973.38;4236102;27;20203;-81
2024/01/19 05:00:27;;;;;;;35.65;22.95;;;;;;;2.15;89.19;97987.03;4220335;28;20208;-80
2024/01/19 05:02:32;;;;;;;39.40;22.55;;;;;;;2.18;89.45;97986.06;4254122;27;20206;-81
2024/01/19 05:04:36;;;;;;;40.15;22.42;;;;;;;2.16;89.15;97985.28;4234866;27;20216;-82
2024/01/19 05:06:39;;;;;;;41.05;21.48;;;;;;;2.13;89.18;97990.56;4225052;27;20220;-82
2024/01/19 05:08:42;;;;;;;38.70;21.85;;;;;;;2.09;89.29;97994.97;4238844;27;20665;-82
2024/01/19 05:10:47;;;;;;;40.95;24.27;;;;;;;2.08;89.63;97989.88;4221338;27;20883;-81
2024/01/19 05:12:50;;;;;;;37.45;22.75;;;;;;;2.10;89.12;97993.22;4225483;27;20201;-81
2024/01/19 05:14:52;;;;;;;40.20;22.45;;;;;;;2.05;88.56;97990.84;4221716;27;20255;-81
2024/01/19 05:16:56;;;;;;;40.28;22.63;;;;;;;2.09;88.70;98001.84;4225282;28;20201;-80
2024/01/19 05:18:58;;;;;;;38.30;22.45;;;;;;;2.04;89.04;97999.44;4223095;27;20204;-81
2024/01/19 05:21:01;;;;;;;44.85;23.67;;;;;;;2.02;89.38;98000.41;4229359;27;20247;-81
2024/01/19 05:23:05;;;;;;;46.38;22.42;;;;;;;2.02;89.35;98008.09;4243170;27;20658;-82
2024/01/19 05:25:09;;;;;;;40.35;24.88;;;;;;;2.00;89.18;98012.44;4237106;27;20823;-80
2024/01/19 05:27:13;;;;;;;41.10;23.38;;;;;;;2.05;89.39;98008.81;4239244;27;20284;-81
2024/01/19 05:29:16;;;;;;;42.22;24.20;;;;;;;2.04;89.46;98011.47;4225240;27;20677;-80
2024/01/19 05:31:19;;;;;;;46.90;24.25;;;;;;;2.00;88.85;98018.44;4234960;27;20320;-80
2024/01/19 05:33:23;;;;;;;40.92;23.70;;;;;;;1.97;89.29;98017.69;4241784;27;20199;-82
2024/01/19 05:35:26;;;;;;;41.97;24.30;;;;;;;2.02;89.69;98031.25;4237683;27;20804;-81
2024/01/19 05:37:29;;;;;;;43.08;23.50;;;;;;;1.99;89.20;98031.34;4232111;27;20206;-81
2024/01/19 05:39:31;;;;;;;37.60;23.13;;;;;;;2.02;89.20;98037.22;4257275;27;20694;-81
2024/01/19 05:41:34;;;;;;;38.67;23.23;;;;;;;2.01;89.28;98035.53;4238031;27;20638;-80
2024/01/19 05:43:39;;;;;;;41.35;22.30;;;;;;;1.99;89.33;98047.63;4255031;27;20248;-81
2024/01/19 05:45:45;;;;;;;39.13;22.40;;;;;;;2.02;89.00;98046.69;4223485;27;20605;-81
2024/01/19 05:47:48;;;;;;;41.03;23.27;;;;;;;2.01;89.35;98065.56;4242199;27;20330;-80
2024/01/19 05:49:51;;;;;;;43.78;24.38;;;;;;;2.01;89.26;98060.41;4237321;27;20700;-81
2024/01/19 05:51:55;;;;;;;42.67;22.95;;;;;;;2.05;89.87;98067.13;4238248;27;20215;-80
2024/01/19 05:53:58;;;;;;;37.53;22.15;;;;;;;2.03;89.68;98063.75;4236739;27;20204;-88
2024/01/19 05:56:00;;;;;;;40.70;22.80;;;;;;;2.04;89.44;98070.59;4236043;27;20303;-87
2024/01/19 05:58:04;;;;;;;37.33;23.08;;;;;;;1.99;88.89;98067.34;4228609;27;20206;-89
2024/01/19 06:00:10;;;;;;;39.92;22.73;;;;;;;1.98;88.83;98078.50;4233491;27;20212;-86
2024/01/19 06:02:14;;;;;;;40.97;22.75;;;;;;;1.98;89.79;98081.91;4232803;27;20212;-86
2024/01/19 06:04:17;;;;;;;39.17;22.77;;;;;;;1.99;89.60;98087.91;4253052;27;20192;-88
2024/01/19 06:06:21;;;;;;;36.08;21.15;;;;;;;2.01;89.60;98088.69;4231328;27;20602;-88
2024/01/19 06:08:23;;;;;;;40.47;24.40;;;;;;;2.00;89.54;98094.72;4233284;27;20228;-88
2024/01/19 06:10:26;;;;;;;36.70;21.83;;;;;;;2.01;90.06;98093.84;4252326;27;20643;-88
2024/01/19 06:12:29;;;;;;;39.20;22.58;;;;;;;1.97;90.05;98097.41;4247986;27;20225;-89
2024/01/19 06:14:32;;;;;;;37.95;22.42;;;;;;;1.94;90.80;98090.66;4231660;27;20202;-87
2024/01/19 06:16:39;;;;;;;45.40;24.73;;;;;;;1.98;90.29;98099.09;4233747;27;20218;-89
2024/01/19 06:18:42;;;;;;;40.35;22.30;;;;;;;1.98;90.00;98101.66;4252011;27;20655;-88
2024/01/19 06:20:46;;;;;;;38.00;22.45;;;;;;;1.97;89.98;98105.09;4240109;27;20205;-89
2024/01/19 06:22:49;;;;;;;40.67;22.25;;;;;;;1.93;89.92;98112.09;4219359;28;20281;-87
2024/01/19 06:24:51;;;;;;;40.58;23.52;;;;;;;1.94;89.80;98110.38;4240527;27;20215;-91
2024/01/19 06:26:54;;;;;;;38.83;21.67;;;;;;;1.99;89.70;98123.91;4236227;27;20227;-89
2024/01/19 06:28:58;;;;;;;41.45;23.52;;;;;;;2.02;90.21;98126.38;4250978;27;20199;-87
2024/01/19 06:31:03;;;;;;;41.20;22.85;;;;;;;2.01;89.88;98130.66;4218006;27;20506;-89
2024/01/19 06:33:08;;;;;;;36.15;22.30;;;;;;;2.05;89.91;98131.41;4226746;27;20196;-88
2024/01/19 06:35:10;;;;;;;40.30;23.50;;;;;;;2.05;89.87;98139.13;4239433;27;20684;-90
2024/01/19 06:37:13;;;;;;;36.83;22.98;;;;;;;2.06;90.19;98144.22;4253792;27;20194;-86
2024/01/19 06:39:16;;;;;;;43.38;23.52;;;;;;;2.08;90.24;98145.00;4239201;27;20209;-89
2024/01/19 06:41:21;;;;;;;43.55;22.98;;;;;;;2.11;90.07;98160.31;4226833;27;20207;-89
2024/01/19 06:43:24;;;;;;;42.58;23.65;;;;;;;2.10;90.35;98158.63;4252858;27;20290;-86
2024/01/19 06:45:27;;;;;;;43.70;23.60;;;;;;;2.13;90.50;98162.84;4229178;27;20281;-89
2024/01/19 06:47:31;;;;;;;39.38;22.50;;;;;;;2.10;89.93;98168.09;4241394;27;20250;-89
2024/01/19 06:49:36;;;;;;;41.15;23.50;;;;;;;2.10;89.95;98170.66;4216181;28;20288;-87
2024/01/19 06:51:41;;;;;;;42.05;22.67;;;;;;;2.09;90.12;98171.53;4235041;27;20281;-89
2024/01/19 06:53:44;;;;;;;38.97;22.88;;;;;;;2.07;90.41;98169.00;4216882;28;20713;-89
2024/01/19 06:55:47;;;;;;;38.15;22.85;;;;;;;2.09;90.15;98181.81;4219467;28;20210;-86
2024/01/19 06:57:50;;;;;;;36.90;21.40;;;;;;;2.11;90.18;98182.63;4260161;27;20553;-89
2024/01/19 06:59:54;;;;;;;39.70;21.40;;;;;;;2.08;90.17;98180.16;4237511;27;20577;-88
2024/01/19 07:01:57;;;;;;;36.67;20.02;;;;;;;2.10;89.95;98192.06;4225182;28;20204;-88
2024/01/19 07:04:01;;;;;;;33.10;18.73;;;;;;;2.12;89.89;98205.72;4236285;27;20301;-82
2024/01/19 07:06:06;;;;;;;35.50;20.65;;;;;;;2.14;90.00;98206.50;4254291;27;20207;-83
2024/01/19 07:08:10;;;;;;;36.63;20.90;;;;;;;2.15;89.85;98207.34;4222649;28;20226;-82
2024/01/19 07:10:12;;;;;;;37.40;21.73;;;;;;;2.16;90.11;98198.75;4237659;27;20492;-83
2024/01/19 07:12:16;;;;;;;35.53;20.38;;;;;;;2.17;89.98;98215.84;4220863;28;20235;-82
2024/01/19 07:14:20;;;;;;;32.38;17.55;;;;;;;2.17;89.90;98226.16;4235012;27;20260;-82
2024/01/19 07:16:23;;;;;;;29.48;16.55;;;;;;;2.18;89.57;98227.81;4220274;28;20196;-82
2024/01/19 07:18:26;;;;;;;33.20;17.58;;;;;;;2.19;89.38;98229.50;4226577;27;20218;-82
2024/01/19 07:20:30;;;;;;;29.23;17.27;;;;;;;2.18;89.13;98231.25;4226746;28;20211;-82
2024/01/19 07:22:35;;;;;;;31.63;17.30;;;;;;;2.22;88.95;98234.53;4222640;28;20314;-82
2024/01/19 07:24:38;;;;;;;26.58;16.20;;;;;;;2.23;89.07;98244.78;4234155;27;20728;-82
2024/01/19 07:26:41;;;;;;;28.67;16.65;;;;;;;2.23;88.83;98236.22;4227502;28;20196;-82
2024/01/19 07:28:44;;;;;;;32.83;17.05;;;;;;;2.25;88.93;98247.28;4240043;27;20285;-82
2024/01/19 07:30:47;;;;;;;30.13;15.55;;;;;;;2.27;88.38;98235.22;4236921;27;20211;-82
2024/01/19 07:32:51;;;;;;;25.38;16.45;;;;;;;2.27;88.37;98240.34;4256626;27;20245;-83
2024/01/19 07:35:09;;;;;;;29.00;17.05;;;;;;;2.30;89.10;98247.97;4214035;28;20212;-82
2024/01/19 07:37:12;;;;;;;30.05;17.08;;;;;;;2.29;88.75;98249.72;4253761;27;20195;-82
2024/01/19 07:39:18;;;;;;;27.50;15.60;;;;;;;2.28;88.70;98254.91;4237728;27;20286;-82
2024/01/19 07:41:22;;;;;;;28.80;16.27;;;;;;;2.30;88.45;98258.25;4236523;27;20196;-82
2024/01/19 07:43:25;;;;;;;27.30;15.40;;;;;;;2.30;88.37;98264.28;4225667;27;20247;-82
2024/01/19 07:45:29;;;;;;;26.33;15.02;;;;;;;2.33;88.41;98258.16;4223687;27;20252;-82
2024/01/19 07:47:34;;;;;;;26.45;15.35;;;;;;;2.31;88.27;98262.53;4220499;27;20211;-82
2024/01/19 07:49:37;;;;;;;24.55;15.02;;;;;;;2.32;88.38;98274.50;4226752;27;20230;-83
2024/01/19 07:51:41;;;;;;;26.02;16.05;;;;;;;2.33;88.58;98281.31;4239865;27;20683;-84
2024/01/19 07:53:45;;;;;;;26.67;14.15;;;;;;;2.32;88.40;98287.38;4237380;27;20207;-82
2024/01/19 07:55:50;;;;;;;23.38;14.25;;;;;;;2.33;88.00;98281.31;4223098;27;20200;-82
2024/01/19 07:57:53;;;;;;;23.35;13.80;;;;;;;2.35;88.31;98293.25;4258126;27;20251;-82
2024/01/19 07:59:56;;;;;;;21.38;13.10;;;;;;;2.37;88.11;98287.13;4235462;27;20208;-83
2024/01/19 08:02:00;;;;;;;26.88;14.43;;;;;;;2.38;87.73;98298.28;4221586;27;20209;-83
2024/01/19 08:04:04;;;;;;;20.95;13.35;;;;;;;2.38;87.97;98304.25;4223527;28;20265;-85
2024/01/19 08:06:09;;;;;;;26.10;14.65;;;;;;;2.40;88.13;98307.63;4222958;27;20204;-81
2024/01/19 08:08:11;;;;;;;26.25;15.57;;;;;;;2.41;87.64;98303.34;4246534;27;20640;-82
2024/01/19 08:10:14;;;;;;;42.63;21.40;;;;;;;2.41;87.31;98308.47;4241741;27;20192;-83
2024/01/19 08:12:19;;;;;;;45.58;22.90;;;;;;;2.37;87.32;98304.31;4243758;27;20203;-82
2024/01/19 08:14:23;;;;;;;22.42;14.05;;;;;;;2.38;87.48;98309.41;4234696;27;20208;-83
2024/01/19 08:16:27;;;;;;;20.95;13.30;;;;;;;2.38;87.70;98314.56;4225809;27;20586;-82
2024/01/19 08:18:34;;;;;;;20.20;12.85;;;;;;;2.40;88.07;98323.06;4238001;27;20203;-83
2024/01/19 08:20:40;;;;;;;21.20;13.45;;;;;;;2.42;87.45;98326.44;4235207;27;20207;-82
2024/01/19 08:22:43;;;;;;;20.60;12.30;;;;;;;2.43;87.87;98320.38;4243325;27;20722;-82
2024/01/19 08:24:46;;;;;;;30.83;14.80;;;;;;;2.47;87.74;98334.84;4242373;27;20204;-83
2024/01/19 08:26:48;;;;;;;23.40;13.80;;;;;;;2.51;87.83;98346.72;4235369;27;20253;-82
2024/01/19 08:28:53;;;;;;;20.80;13.80;;;;;;;2.50;87.87;98345.03;4231782;27;20220;-83
2024/01/19 08:30:55;;;;;;;21.73;13.70;;;;;;;2.52;87.65;98356.09;4218705;27;20536;-84
2024/01/19 08:33:00;;;;;;;22.85;13.32;;;;;;;2.53;87.94;98344.94;4220996;27;20892;-83
2024/01/19 08:35:08;;;;;;;24.08;13.95;;;;;;;2.53;87.83;98351.81;4221051;27;20291;-83
2024/01/19 08:37:10;;;;;;;24.20;15.23;;;;;;;2.55;87.65;98358.59;4242371;27;20602;-82
2024/01/19 08:39:14;;;;;;;20.08;13.75;;;;;;;2.60;87.87;98358.44;4262133;27;20195;-83
2024/01/19 08:41:16;;;;;;;22.45;13.95;;;;;;;2.60;87.47;98351.56;4226354;27;20245;-82
2024/01/19 08:43:19;;;;;;;26.17;15.35;;;;;;;2.60;87.72;98361.88;4241740;27;20711;-82
2024/01/19 08:45:24;;;;;;;25.52;14.82;;;;;;;2.59;87.68;98357.59;4228397;27;20208;-83
2024/01/19 08:47:27;;;;;;;23.92;14.32;;;;;;;2.60;87.28;98368.72;4240454;27;20225;-82
2024/01/19 08:49:30;;;;;;;29.50;15.10;;;;;;;2.63;88.20;98358.34;4227616;27;20228;-85
2024/01/19 08:51:34;;;;;;;23.75;14.80;;;;;;;2.67;87.88;98375.38;4255070;27;20839;-83
2024/01/19 08:53:38;;;;;;;26.30;13.93;;;;;;;2.68;87.80;98379.63;4242217;27;20299;-81
2024/01/19 08:55:42;;;;;;;20.02;13.57;;;;;;;2.72;87.47;98369.19;4226911;27;20196;-82
2024/01/19 08:57:45;;;;;;;23.50;13.57;;;;;;;2.76;87.50;98385.38;4222936;27;20204;-83
2024/01/19 08:59:48;;;;;;;22.80;14.35;;;;;;;2.79;87.54;98380.13;4261035;27;20198;-84
2024/01/19 09:01:55;;;;;;;27.08;15.40;;;;;;;2.76;87.07;98386.19;4225526;28;20200;-83
2024/01/19 09:03:58;;;;;;;24.85;13.48;;;;;;;2.79;86.31;98391.25;4230621;27;20235;-81
2024/01/19 09:06:02;;;;;;;21.63;13.30;;;;;;;2.76;86.84;98382.78;4268230;27;20239;-81
2024/01/19 09:08:06;;;;;;;22.75;13.32;;;;;;;2.78;86.33;98386.13;4234730;27;20204;-84
2024/01/19 09:10:08;;;;;;;23.17;13.70;;;;;;;2.80;86.41;98387.78;4226067;27;20330;-83
2024/01/19 09:12:11;;;;;;;19.85;13.15;;;;;;;2.81;85.79;98392.03;4234736;27;20206;-85
2024/01/19 09:14:15;;;;;;;20.27;12.65;;;;;;;2.85;85.96;98409.06;4224328;27;20708;-83
2024/01/19 09:16:18;;;;;;;20.27;12.20;;;;;;;2.87;85.73;98412.41;4220902;27;20650;-81
2024/01/19 09:18:23;;;;;;;18.50;12.15;;;;;;;2.89;86.06;98411.47;4215540;27;20677;-82
2024/01/19 09:20:26;;;;;;;19.50;12.13;;;;;;;2.89;86.40;98419.22;4226508;27;20305;-81
2024/01/19 09:22:29;;;;;;;18.63;12.23;;;;;;;2.93;86.25;98422.50;4235266;27;20255;-86
2024/01/19 09:24:32;;;;;;;21.38;12.38;;;;;;;2.93;85.94;98430.25;4254167;27;20202;-85
2024/01/19 09:26:35;;;;;;;22.70;12.95;;;;;;;2.93;86.04;98432.81;4233808;27;20210;-85
2024/01/19 09:28:38;;;;;;;19.10;12.77;;;;;;;2.96;86.53;98431.00;4253672;27;20199;-85
2024/01/19 09:30:41;;;;;;;24.25;13.25;;;;;;;3.02;86.81;98447.97;4229899;27;20314;-85
2024/01/19 09:32:44;;;;;;;22.40;13.63;;;;;;;3.08;86.21;98450.34;4234661;27;20264;-85
2024/01/19 09:34:49;;;;;;;21.65;13.82;;;;;;;3.09;85.56;98445.13;4235168;27;20226;-85